Terminal Aerodrome Forecast
Issued by NWS

Home | Current Version | Previous Version | Text Only | Print | Product List | Glossary On
Versions: 1 2 3 4 5 6 7 8 9 10 11 12 13 14
813
FTAK31 PAJN 261123
TAFAGY
TAF
PAGY 261123Z 2612/2712 21016KT P6SM OVC060
     FM261500 21010G16KT P6SM SCT030 OVC050
     FM261900 21015G28KT P6SM SCT090
     FM270500 21010KT P6SM SCT080
      AMD LTD TO CLD VIS AND WIND=

USA.gov is the U.S. government's official web portal to all federal, state and local government web resources and services.